Time;durP1;ratioP1;P1;durP2;ratioP2;P2;SDS_P1;SDS_P2;PMS_P1;PMS_P2;Temp;Humidity;BMP_temperature;BMP_pressure;BME280_temperature;BME280_humidity;BME280_pressure;Samples;Min_cycle;Max_cycle;Signal;HPM_P1;HPM_P2
2021/08/29 00:01:22;;;;;;;3.80;2.50;;;13.40;99.90;;;;;;5040707;28;20840;-83
2021/08/29 00:03:48;;;;;;;3.10;2.90;;;13.60;99.90;;;;;;5040294;28;20494;-83
2021/08/29 00:06:14;;;;;;;2.47;2.27;;;13.60;99.90;;;;;;5040400;28;20510;-83
2021/08/29 00:08:40;;;;;;;2.87;2.67;;;13.50;99.90;;;;;;5040029;28;20196;-83
2021/08/29 00:11:06;;;;;;;2.90;2.57;;;13.40;99.90;;;;;;5039908;28;20415;-83
2021/08/29 00:13:32;;;;;;;3.10;2.90;;;13.50;99.90;;;;;;5040127;28;20232;-83
2021/08/29 00:15:57;;;;;;;2.43;2.23;;;13.70;99.90;;;;;;5039473;28;20503;-83
2021/08/29 00:18:23;;;;;;;2.63;2.43;;;13.50;99.90;;;;;;5039645;28;20168;-83
2021/08/29 00:20:49;;;;;;;2.73;2.53;;;13.40;99.90;;;;;;5039375;28;20157;-83
2021/08/29 00:23:15;;;;;;;2.60;2.40;;;13.40;99.90;;;;;;5039938;28;20173;-83
2021/08/29 00:25:41;;;;;;;2.77;2.50;;;13.30;99.90;;;;;;5040092;28;20637;-83
2021/08/29 00:28:07;;;;;;;3.33;2.80;;;13.20;99.90;;;;;;5039853;28;20161;-83
2021/08/29 00:30:33;;;;;;;3.80;2.47;;;13.30;99.90;;;;;;5039521;28;20399;-83
2021/08/29 00:32:59;;;;;;;3.33;3.03;;;13.30;99.90;;;;;;5039389;28;20439;-83
2021/08/29 00:35:25;;;;;;;2.93;2.43;;;13.40;99.90;;;;;;5039364;28;20164;-83
2021/08/29 00:37:52;;;;;;;3.03;2.83;;;13.60;99.90;;;;;;5039972;28;20161;-83
2021/08/29 00:40:19;;;;;;;3.20;2.77;;;13.60;99.90;;;;;;5038830;28;20157;-83
2021/08/29 00:42:46;;;;;;;2.73;2.53;;;13.50;99.90;;;;;;5038681;28;20454;-83
2021/08/29 00:45:12;;;;;;;3.57;3.27;;;13.40;99.90;;;;;;5039378;28;20399;-83
2021/08/29 00:47:38;;;;;;;2.83;2.63;;;13.30;99.90;;;;;;5038917;28;20422;-83
2021/08/29 00:50:06;;;;;;;7.93;3.23;;;13.10;99.90;;;;;;5038955;28;20176;-83
2021/08/29 00:52:39;;;;;;;4.07;3.77;;;13.30;99.90;;;;;;5039439;28;20443;-83
2021/08/29 00:55:07;;;;;;;3.50;3.13;;;13.50;99.90;;;;;;5039275;28;20398;-83
2021/08/29 00:57:33;;;;;;;3.27;2.97;;;13.60;99.90;;;;;;5039579;28;20885;-83
2021/08/29 00:59:59;;;;;;;3.20;3.00;;;13.60;99.90;;;;;;5037814;28;20449;-83
2021/08/29 01:02:26;;;;;;;3.53;3.10;;;13.70;99.90;;;;;;5038919;28;20207;-83
2021/08/29 01:05:07;;;;;;;4.93;3.60;;;13.60;99.90;;;;;;5037856;28;20172;-83
2021/08/29 01:07:48;;;;;;;2.70;2.50;;;13.50;99.90;;;;;;5038976;28;20395;-83
2021/08/29 01:10:20;;;;;;;4.47;3.30;;;13.50;99.90;;;;;;5039090;28;20442;-83
2021/08/29 01:12:50;;;;;;;3.33;3.03;;;13.30;99.90;;;;;;5039018;28;20496;-83
2021/08/29 01:15:22;;;;;;;3.57;3.20;;;13.30;99.90;;;;;;5038938;28;20411;-83
2021/08/29 01:17:51;;;;;;;4.40;4.00;;;13.40;99.90;;;;;;5038831;28;20486;-83
2021/08/29 01:20:41;;;;;;;2.80;2.60;;;13.40;99.90;;;;;;5038443;28;20403;-83
2021/08/29 01:23:08;;;;;;;5.83;3.80;;;13.50;99.90;;;;;;5038189;28;20450;-83
2021/08/29 01:25:38;;;;;;;4.03;3.63;;;13.50;99.90;;;;;;5038707;28;20422;-83
2021/08/29 01:28:15;;;;;;;5.27;3.97;;;13.70;99.90;;;;;;5038700;28;20443;-83
2021/08/29 01:30:43;;;;;;;5.17;4.43;;;13.90;99.90;;;;;;5038440;28;20400;-83
2021/08/29 01:33:10;;;;;;;4.23;3.43;;;14.10;99.90;;;;;;5038363;28;20436;-83
2021/08/29 01:35:38;;;;;;;4.30;3.90;;;14.10;99.90;;;;;;5036988;28;20419;-83
2021/08/29 01:38:06;;;;;;;3.80;3.47;;;14.20;99.90;;;;;;5038557;28;20474;-83
2021/08/29 01:40:33;;;;;;;3.90;3.60;;;14.20;99.90;;;;;;5038664;28;20396;-83
2021/08/29 01:43:00;;;;;;;3.83;3.50;;;13.90;99.90;;;;;;5038295;28;20411;-83
2021/08/29 01:45:27;;;;;;;3.57;3.37;;;13.60;99.90;;;;;;5038105;28;20876;-83
2021/08/29 01:47:56;;;;;;;7.13;3.60;;;13.50;99.90;;;;;;5038351;28;20812;-83
2021/08/29 01:50:22;;;;;;;4.13;3.73;;;13.30;99.90;;;;;;5038322;28;20396;-83
2021/08/29 01:52:48;;;;;;;3.90;3.60;;;13.50;99.90;;;;;;5037897;28;20819;-83
2021/08/29 01:55:14;;;;;;;6.70;3.80;;;13.60;99.90;;;;;;5036914;28;20458;-83
2021/08/29 01:57:41;;;;;;;3.80;3.50;;;13.60;99.90;;;;;;5037817;28;20603;-83
2021/08/29 02:00:08;;;;;;;5.07;4.40;;;13.60;99.90;;;;;;5038386;28;20575;-83
2021/08/29 02:02:34;;;;;;;4.20;3.90;;;13.40;99.90;;;;;;5037488;28;20435;-83
2021/08/29 02:05:00;;;;;;;4.00;3.70;;;13.30;99.90;;;;;;5038348;28;20494;-83
2021/08/29 02:07:40;;;;;;;4.53;4.23;;;13.30;99.90;;;;;;5038549;28;20404;-83
2021/08/29 02:10:09;;;;;;;4.50;4.10;;;13.40;99.90;;;;;;5037704;28;20518;-83
2021/08/29 02:12:43;;;;;;;4.57;4.17;;;13.50;99.90;;;;;;5037682;28;20443;-83
2021/08/29 02:15:16;;;;;;;5.87;4.23;;;13.50;99.90;;;;;;5034268;28;20505;-83
2021/08/29 02:17:42;;;;;;;4.13;3.83;;;13.30;99.90;;;;;;5037633;28;20435;-83
2021/08/29 02:20:15;;;;;;;4.27;3.97;;;13.30;99.90;;;;;;5037923;28;20494;-83
2021/08/29 02:22:41;;;;;;;3.70;3.40;;;13.40;99.90;;;;;;5037566;28;20411;-83
2021/08/29 02:25:08;;;;;;;3.77;3.47;;;13.20;99.90;;;;;;5037662;28;20488;-83
2021/08/29 02:27:35;;;;;;;5.90;3.50;;;13.30;99.90;;;;;;5036652;28;20453;-83
2021/08/29 02:30:03;;;;;;;8.83;4.00;;;13.40;99.90;;;;;;5037892;28;20589;-83
2021/08/29 02:32:30;;;;;;;6.57;3.80;;;13.40;99.90;;;;;;5037686;28;20725;-83
2021/08/29 02:34:56;;;;;;;3.87;3.57;;;13.40;99.90;;;;;;5037672;28;21019;-83
2021/08/29 02:37:25;;;;;;;5.30;3.60;;;13.40;99.90;;;;;;5037958;28;20430;-83
2021/08/29 02:39:55;;;;;;;4.20;3.90;;;13.20;99.90;;;;;;5037422;28;20453;-83
2021/08/29 02:42:22;;;;;;;4.83;4.00;;;13.40;99.90;;;;;;5036525;28;20454;-83
2021/08/29 02:44:49;;;;;;;4.00;3.00;;;13.40;99.90;;;;;;5039606;28;20410;-83
2021/08/29 02:47:15;;;;;;;5.80;4.00;;;13.40;99.90;;;;;;5038874;28;20435;-83
2021/08/29 02:49:42;;;;;;;4.67;4.27;;;13.50;99.90;;;;;;5038740;28;20399;-83
2021/08/29 02:52:08;;;;;;;4.50;4.20;;;13.70;99.90;;;;;;5043648;28;20466;-83
2021/08/29 02:54:39;;;;;;;4.83;4.43;;;13.80;99.90;;;;;;5037949;28;20400;-83
2021/08/29 02:57:06;;;;;;;4.20;3.80;;;13.70;99.90;;;;;;5037692;28;20412;-83
2021/08/29 02:59:35;;;;;;;4.37;3.80;;;13.80;99.90;;;;;;5037761;28;20395;-83
2021/08/29 03:02:01;;;;;;;3.63;3.33;;;13.80;99.90;;;;;;5037537;28;20778;-83
2021/08/29 03:04:26;;;;;;;3.83;3.53;;;13.40;99.90;;;;;;5037864;28;20395;-83
2021/08/29 03:06:52;;;;;;;6.63;3.87;;;13.50;99.90;;;;;;5050488;28;20161;-81
2021/08/29 03:09:18;;;;;;;5.00;3.87;;;13.40;99.90;;;;;;5055696;28;20423;-81
2021/08/29 03:11:44;;;;;;;3.80;3.50;;;13.40;99.90;;;;;;5048064;28;20263;-81
2021/08/29 03:14:10;;;;;;;3.70;3.47;;;13.40;99.90;;;;;;5055075;28;20271;-81
2021/08/29 03:16:36;;;;;;;3.50;3.20;;;13.30;99.90;;;;;;5054664;28;20172;-81
2021/08/29 03:19:03;;;;;;;5.87;4.07;;;13.30;99.90;;;;;;5054803;28;20168;-81
2021/08/29 03:21:29;;;;;;;4.00;3.60;;;13.30;99.90;;;;;;5055896;28;20391;-81
2021/08/29 03:23:55;;;;;;;5.30;3.50;;;13.30;99.90;;;;;;5055708;28;20419;-81
2021/08/29 03:26:21;;;;;;;3.80;3.47;;;13.40;99.90;;;;;;5056299;28;20406;-81
2021/08/29 03:28:47;;;;;;;3.80;3.50;;;13.40;99.90;;;;;;5057386;28;20413;-82
2021/08/29 03:31:13;;;;;;;4.83;4.33;;;13.60;99.90;;;;;;5060485;28;20432;-81
2021/08/29 03:33:43;;;;;;;4.57;3.77;;;13.60;99.90;;;;;;5060492;28;20220;-81
2021/08/29 03:36:13;;;;;;;3.97;3.67;;;13.60;99.90;;;;;;5060356;28;20228;-81
2021/08/29 03:38:40;;;;;;;3.73;3.40;;;13.30;99.90;;;;;;5060223;28;20379;-81
2021/08/29 03:41:08;;;;;;;4.90;3.40;;;13.40;99.90;;;;;;5060114;28;20402;-81
2021/08/29 03:43:34;;;;;;;6.57;3.87;;;13.60;99.90;;;;;;5060385;28;20415;-82
2021/08/29 03:46:00;;;;;;;4.10;3.80;;;13.40;99.90;;;;;;5058852;28;20422;-82
2021/08/29 03:48:26;;;;;;;4.53;3.70;;;13.30;99.90;;;;;;5060022;28;20181;-82
2021/08/29 03:50:52;;;;;;;4.53;4.10;;;13.40;99.90;;;;;;5058622;28;20403;-82
2021/08/29 03:53:18;;;;;;;3.67;3.30;;;13.50;99.90;;;;;;5018498;28;20674;-83
2021/08/29 03:55:44;;;;;;;4.97;4.47;;;13.50;99.90;;;;;;5018605;28;20444;-83
2021/08/29 03:58:10;;;;;;;4.73;4.13;;;13.50;99.90;;;;;;5001743;28;20276;-83
2021/08/29 04:00:36;;;;;;;3.77;3.47;;;13.70;99.90;;;;;;5018162;28;20975;-82
2021/08/29 04:03:02;;;;;;;6.97;3.40;;;13.50;99.90;;;;;;5017821;28;20474;-82
2021/08/29 04:05:28;;;;;;;4.50;3.60;;;13.50;99.90;;;;;;5018114;28;20401;-82
2021/08/29 04:07:58;;;;;;;4.50;3.43;;;13.40;99.90;;;;;;5030769;28;20427;-82
2021/08/29 04:10:24;;;;;;;6.40;3.40;;;13.40;99.90;;;;;;5030473;28;20224;-83
2021/08/29 04:12:50;;;;;;;4.00;3.40;;;13.50;99.90;;;;;;5018239;28;20542;-83
2021/08/29 04:15:16;;;;;;;4.37;4.03;;;13.50;99.90;;;;;;5017989;28;20526;-83
2021/08/29 04:17:43;;;;;;;4.13;3.73;;;13.50;99.90;;;;;;5002049;28;20492;-83
2021/08/29 04:20:11;;;;;;;5.00;3.83;;;13.50;99.90;;;;;;5017976;28;20471;-83
2021/08/29 04:22:37;;;;;;;4.20;3.83;;;13.50;99.90;;;;;;5017735;28;20412;-83
2021/08/29 04:25:03;;;;;;;4.47;4.17;;;13.60;99.90;;;;;;5035964;28;20423;-83
2021/08/29 04:27:29;;;;;;;4.73;3.93;;;13.50;99.90;;;;;;5040031;28;20173;-83
2021/08/29 04:29:55;;;;;;;3.63;3.33;;;13.50;99.90;;;;;;5039448;28;20754;-83
2021/08/29 04:32:21;;;;;;;4.33;3.90;;;13.30;99.90;;;;;;5039294;28;20451;-83
2021/08/29 04:34:47;;;;;;;4.50;4.13;;;13.30;99.90;;;;;;5039701;28;20411;-83
2021/08/29 04:37:13;;;;;;;3.93;3.63;;;13.30;99.90;;;;;;5039359;28;20403;-83
2021/08/29 04:39:41;;;;;;;4.30;3.83;;;13.30;99.90;;;;;;5039098;28;20164;-82
2021/08/29 04:42:07;;;;;;;6.30;4.00;;;13.50;99.90;;;;;;5037837;28;20220;-83
2021/08/29 04:44:33;;;;;;;7.43;4.13;;;13.50;99.90;;;;;;5039275;28;20755;-83
2021/08/29 04:46:59;;;;;;;4.67;4.37;;;13.60;99.90;;;;;;5039026;28;20644;-82
2021/08/29 04:49:25;;;;;;;4.70;4.30;;;13.60;99.90;;;;;;5039815;28;20210;-83
2021/08/29 04:51:51;;;;;;;11.37;5.10;;;13.40;99.90;;;;;;5038975;28;20457;-83
2021/08/29 04:54:16;;;;;;;5.37;4.97;;;13.40;99.90;;;;;;5039546;28;20659;-83
2021/08/29 04:56:42;;;;;;;8.37;4.53;;;13.50;99.90;;;;;;5039146;28;20157;-83
2021/08/29 04:59:08;;;;;;;4.60;4.20;;;13.70;99.90;;;;;;5038971;28;20169;-83
2021/08/29 05:01:33;;;;;;;5.73;5.13;;;13.70;99.90;;;;;;5037938;28;20169;-83
2021/08/29 05:03:59;;;;;;;5.00;4.60;;;13.40;99.90;;;;;;5038645;28;20171;-82
2021/08/29 05:06:27;;;;;;;5.33;4.57;;;13.40;99.90;;;;;;5038661;28;20173;-83
2021/08/29 05:08:53;;;;;;;5.13;4.73;;;13.40;99.90;;;;;;5038600;28;20326;-83
2021/08/29 05:11:21;;;;;;;4.90;4.50;;;13.50;99.90;;;;;;5038620;28;20494;-83
2021/08/29 05:13:47;;;;;;;5.93;4.93;;;13.60;99.90;;;;;;5038250;28;20471;-83
2021/08/29 05:16:13;;;;;;;7.07;5.40;;;13.90;99.90;;;;;;5038262;28;20495;-82
2021/08/29 05:18:38;;;;;;;6.13;4.43;;;13.90;99.90;;;;;;5037920;28;20606;-82
2021/08/29 05:21:05;;;;;;;4.70;4.27;;;14.00;99.90;;;;;;5037298;28;20180;-83
2021/08/29 05:23:31;;;;;;;6.30;4.50;;;14.10;99.90;;;;;;5038156;28;20165;-82
2021/08/29 05:25:56;;;;;;;6.93;4.83;;;14.30;99.90;;;;;;5038528;28;20447;-83
2021/08/29 05:28:23;;;;;;;6.40;4.23;;;14.30;99.90;;;;;;5038839;28;20470;-83
2021/08/29 05:30:48;;;;;;;6.77;4.33;;;14.50;99.90;;;;;;5038287;28;20171;-82
2021/08/29 05:33:14;;;;;;;5.03;4.63;;;14.50;99.90;;;;;;5038082;28;20795;-83
2021/08/29 05:35:40;;;;;;;5.00;4.50;;;14.60;99.90;;;;;;5035655;28;20204;-83
2021/08/29 05:38:06;;;;;;;5.33;4.83;;;14.20;99.90;;;;;;5035482;28;20280;-83
2021/08/29 05:40:32;;;;;;;5.97;4.77;;;14.30;99.90;;;;;;5035726;28;20192;-83
2021/08/29 05:42:57;;;;;;;4.90;4.50;;;14.50;99.90;;;;;;5019170;28;20169;-82
2021/08/29 05:45:23;;;;;;;4.50;4.10;;;14.50;99.90;;;;;;5035857;28;20188;-83
2021/08/29 05:47:49;;;;;;;7.47;4.60;;;14.40;99.90;;;;;;5035504;28;20196;-83
2021/08/29 05:50:15;;;;;;;5.33;4.83;;;14.40;99.90;;;;;;5018986;28;20192;-83
2021/08/29 05:52:40;;;;;;;4.27;3.87;;;14.30;99.90;;;;;;5034675;28;20211;-83
2021/08/29 05:55:07;;;;;;;4.40;4.00;;;14.40;99.90;;;;;;5035597;28;20189;-83
2021/08/29 05:57:33;;;;;;;4.90;4.50;;;14.30;99.90;;;;;;5035311;28;20204;-83
2021/08/29 06:00:00;;;;;;;5.13;4.73;;;14.30;99.90;;;;;;5036638;28;20407;-83
2021/08/29 06:02:25;;;;;;;4.77;4.37;;;14.40;99.90;;;;;;5039104;28;20439;-82
2021/08/29 06:04:51;;;;;;;4.33;3.93;;;14.40;99.90;;;;;;5036521;28;20478;-82
2021/08/29 06:07:17;;;;;;;4.83;4.30;;;14.70;99.90;;;;;;5037901;28;20638;-83
2021/08/29 06:09:43;;;;;;;4.30;3.33;;;14.50;99.90;;;;;;5037051;28;20526;-83
2021/08/29 06:12:09;;;;;;;3.80;3.40;;;14.50;99.90;;;;;;5038189;28;20268;-83
2021/08/29 06:14:34;;;;;;;4.53;3.67;;;14.60;99.90;;;;;;5036473;28;20235;-82
2021/08/29 06:17:00;;;;;;;4.50;3.97;;;14.80;99.90;;;;;;5037838;28;20187;-83
2021/08/29 06:19:26;;;;;;;4.67;3.63;;;14.90;99.90;;;;;;5038193;28;20307;-83
2021/08/29 06:21:52;;;;;;;4.03;3.70;;;14.90;99.90;;;;;;5038219;28;20164;-83
2021/08/29 06:24:18;;;;;;;3.83;3.37;;;14.90;99.90;;;;;;5037797;28;20161;-83
2021/08/29 06:26:43;;;;;;;4.00;3.70;;;15.00;99.90;;;;;;5037434;28;20214;-83
2021/08/29 06:29:10;;;;;;;4.37;4.07;;;15.10;99.90;;;;;;5037441;28;20227;-83
2021/08/29 06:31:36;;;;;;;4.80;4.27;;;15.10;99.90;;;;;;5037683;28;20211;-83
2021/08/29 06:34:02;;;;;;;4.80;4.03;;;15.20;99.90;;;;;;5037711;28;20451;-82
2021/08/29 06:36:29;;;;;;;4.70;4.27;;;15.00;99.90;;;;;;5037527;28;20257;-83
2021/08/29 06:38:57;;;;;;;4.70;4.20;;;14.90;99.90;;;;;;5037375;28;20215;-83
2021/08/29 06:41:24;;;;;;;5.23;4.00;;;14.80;99.90;;;;;;5037563;28;20961;-83
2021/08/29 06:43:50;;;;;;;4.70;3.30;;;14.50;99.90;;;;;;5036918;28;20439;-82
2021/08/29 06:46:16;;;;;;;4.77;4.30;;;14.50;99.90;;;;;;5038372;28;20408;-83
2021/08/29 06:48:42;;;;;;;5.37;4.53;;;14.50;99.90;;;;;;5037850;28;20750;-82
2021/08/29 06:51:07;;;;;;;5.43;4.30;;;14.80;99.90;;;;;;5019581;28;20161;-82
2021/08/29 06:53:33;;;;;;;4.53;4.13;;;14.90;99.90;;;;;;5018984;28;20665;-83
2021/08/29 06:56:00;;;;;;;4.30;3.90;;;14.90;99.90;;;;;;5036952;28;20312;-83
2021/08/29 06:58:26;;;;;;;7.03;4.97;;;14.90;99.90;;;;;;5037437;28;20176;-83
2021/08/29 07:00:52;;;;;;;5.50;4.50;;;14.90;99.90;;;;;;5036946;28;20399;-83
2021/08/29 07:03:18;;;;;;;5.93;4.43;;;14.80;99.90;;;;;;5037331;28;20161;-83
2021/08/29 07:05:43;;;;;;;4.97;4.47;;;14.60;99.90;;;;;;5037077;28;20222;-83
2021/08/29 07:08:09;;;;;;;7.60;4.30;;;14.70;99.90;;;;;;5036210;28;20284;-83
2021/08/29 07:10:35;;;;;;;3.83;3.53;;;14.70;99.90;;;;;;5037463;28;20192;-83
2021/08/29 07:13:01;;;;;;;5.17;4.77;;;14.90;99.90;;;;;;5036673;28;20192;-83
2021/08/29 07:15:27;;;;;;;6.43;4.10;;;15.10;99.90;;;;;;5037206;28;20196;-83
2021/08/29 07:17:53;;;;;;;4.23;3.87;;;14.90;99.90;;;;;;5037269;28;20626;-83
2021/08/29 07:20:19;;;;;;;4.83;3.63;;;15.10;99.90;;;;;;5036501;28;20481;-83
2021/08/29 07:22:44;;;;;;;4.00;3.60;;;15.20;99.90;;;;;;5038783;28;20165;-83
2021/08/29 07:25:10;;;;;;;2.90;2.70;;;15.10;99.90;;;;;;5038873;28;20164;-83
2021/08/29 07:27:37;;;;;;;3.77;3.40;;;15.10;99.90;;;;;;5038396;28;20188;-83
2021/08/29 07:30:03;;;;;;;3.93;3.63;;;15.30;99.90;;;;;;5042995;28;20233;-82
2021/08/29 07:32:29;;;;;;;4.03;3.63;;;15.00;99.90;;;;;;5035653;28;20451;-83
2021/08/29 07:34:55;;;;;;;3.87;3.57;;;15.10;99.90;;;;;;5036721;28;20433;-83
2021/08/29 07:37:22;;;;;;;3.87;2.80;;;15.20;99.90;;;;;;5036929;28;20157;-83
2021/08/29 07:39:49;;;;;;;4.47;3.53;;;15.20;99.90;;;;;;5037853;28;20157;-83
2021/08/29 07:42:15;;;;;;;3.53;3.23;;;15.30;99.90;;;;;;5040624;28;20395;-83
2021/08/29 07:44:41;;;;;;;2.70;2.50;;;15.40;99.90;;;;;;5048118;28;20392;-83
2021/08/29 07:47:07;;;;;;;4.13;3.03;;;15.30;99.90;;;;;;5041861;28;20430;-84
2021/08/29 07:49:32;;;;;;;2.80;2.60;;;15.50;99.90;;;;;;5036820;28;20223;-84
2021/08/29 07:51:58;;;;;;;2.83;2.50;;;15.40;99.90;;;;;;5037244;28;20157;-84
2021/08/29 07:54:24;;;;;;;2.77;2.57;;;15.50;99.90;;;;;;5036986;28;20157;-84
2021/08/29 07:56:50;;;;;;;2.57;2.37;;;15.70;99.90;;;;;;5036821;28;20415;-83
2021/08/29 07:59:16;;;;;;;2.20;2.10;;;15.60;99.90;;;;;;5036675;28;20175;-84
2021/08/29 08:01:41;;;;;;;2.43;2.23;;;15.50;99.90;;;;;;5037116;28;20157;-83
2021/08/29 08:04:07;;;;;;;7.13;2.67;;;15.80;99.90;;;;;;5036740;28;20602;-84
2021/08/29 08:06:33;;;;;;;2.23;2.10;;;15.70;99.90;;;;;;5037174;28;20184;-83
2021/08/29 08:09:00;;;;;;;1.90;1.80;;;16.10;99.90;;;;;;5036711;28;20200;-84
2021/08/29 08:11:25;;;;;;;2.23;2.13;;;16.10;99.90;;;;;;5036702;28;20165;-83
2021/08/29 08:14:11;;;;;;;1.90;1.80;;;16.40;99.90;;;;;;5034516;28;20892;-83
2021/08/29 08:16:37;;;;;;;1.83;1.70;;;16.70;99.90;;;;;;5018032;28;20562;-83
2021/08/29 08:19:22;;;;;;;1.90;1.80;;;16.60;99.90;;;;;;5001805;28;20491;-83
2021/08/29 08:21:48;;;;;;;1.97;1.87;;;16.80;99.90;;;;;;4979644;28;20170;-83
2021/08/29 08:24:14;;;;;;;1.80;1.70;;;16.70;99.90;;;;;;4979290;28;20761;-83
2021/08/29 08:26:40;;;;;;;1.90;1.67;;;16.80;99.90;;;;;;4979851;28;20527;-83
2021/08/29 08:29:06;;;;;;;1.90;1.80;;;16.70;99.90;;;;;;4963192;28;20656;-83
2021/08/29 08:31:31;;;;;;;1.70;1.60;;;16.80;99.90;;;;;;4979312;28;20465;-84
2021/08/29 08:33:57;;;;;;;3.17;2.50;;;16.80;99.90;;;;;;4962800;28;20303;-83
2021/08/29 08:36:23;;;;;;;4.40;1.93;;;17.20;99.90;;;;;;4963124;28;20238;-83
2021/08/29 08:38:49;;;;;;;2.43;1.67;;;17.40;99.90;;;;;;4979541;28;20155;-84
2021/08/29 08:41:14;;;;;;;3.70;2.13;;;17.60;99.90;;;;;;4979233;28;20182;-83
2021/08/29 08:43:41;;;;;;;2.17;1.70;;;17.70;99.90;;;;;;4962829;28;20167;-84
2021/08/29 08:46:09;;;;;;;3.07;2.30;;;17.50;99.90;;;;;;4978616;28;20201;-83
2021/08/29 08:48:35;;;;;;;1.70;1.60;;;17.50;99.90;;;;;;4980517;28;20417;-83
2021/08/29 08:51:23;;;;;;;1.40;1.30;;;17.60;99.90;;;;;;4998049;28;20413;-83
2021/08/29 08:53:52;;;;;;;1.77;1.67;;;17.40;99.90;;;;;;5013820;28;20464;-84
2021/08/29 08:56:19;;;;;;;1.70;1.50;;;17.40;99.90;;;;;;5018126;28;20412;-83
2021/08/29 08:58:47;;;;;;;1.50;1.40;;;17.50;99.90;;;;;;5017933;28;20893;-83
2021/08/29 09:01:16;;;;;;;2.20;2.00;;;17.50;99.90;;;;;;5018079;28;20408;-83
2021/08/29 09:04:05;;;;;;;1.50;1.40;;;17.20;99.90;;;;;;5018206;28;20476;-83
2021/08/29 09:06:34;;;;;;;2.90;1.67;;;16.80;99.90;;;;;;4929411;29;20543;-84
2021/08/29 09:09:03;;;;;;;1.60;1.50;;;17.50;99.90;;;;;;4960094;29;20443;-84
2021/08/29 09:11:32;;;;;;;2.10;1.60;;;18.00;99.90;;;;;;4940940;29;20980;-83
2021/08/29 09:13:58;;;;;;;1.30;1.20;;;17.70;99.90;;;;;;4940442;29;20478;-83
2021/08/29 09:16:26;;;;;;;1.20;1.10;;;18.00;99.90;;;;;;4942400;29;20793;-84
2021/08/29 09:18:56;;;;;;;1.20;1.10;;;18.20;99.90;;;;;;4940132;29;20192;-84
2021/08/29 09:21:26;;;;;;;1.47;1.37;;;18.20;99.90;;;;;;4940123;29;20420;-83
2021/08/29 09:23:54;;;;;;;1.67;1.47;;;18.40;99.90;;;;;;4945585;28;20423;-84
2021/08/29 09:26:23;;;;;;;1.50;1.40;;;18.60;99.90;;;;;;4977827;28;20415;-84
2021/08/29 09:28:50;;;;;;;1.97;1.77;;;18.60;99.90;;;;;;4978674;28;20505;-84
2021/08/29 09:31:18;;;;;;;1.53;1.43;;;18.60;99.90;;;;;;4978484;28;20429;-83
2021/08/29 09:34:00;;;;;;;1.57;1.47;;;18.30;99.90;;;;;;4946376;28;20454;-84
2021/08/29 09:36:31;;;;;;;1.67;1.57;;;17.50;99.90;;;;;;4979860;28;20428;-84
2021/08/29 09:39:09;;;;;;;1.50;1.40;;;18.00;99.90;;;;;;4981040;28;20425;-84
2021/08/29 09:41:35;;;;;;;1.20;1.10;;;18.10;99.90;;;;;;5004993;28;20415;-84
2021/08/29 09:44:14;;;;;;;1.37;1.27;;;18.60;99.90;;;;;;5039914;28;20723;-83
2021/08/29 09:46:59;;;;;;;1.50;1.40;;;18.90;99.90;;;;;;5037435;28;20656;-84
2021/08/29 09:49:28;;;;;;;1.50;1.40;;;19.40;99.90;;;;;;5040037;28;20407;-84
2021/08/29 09:51:56;;;;;;;1.60;1.50;;;19.60;99.90;;;;;;5037911;28;20454;-84
2021/08/29 09:54:33;;;;;;;1.60;1.50;;;19.60;99.90;;;;;;5039274;28;20415;-83
2021/08/29 09:57:04;;;;;;;1.60;1.50;;;18.70;99.90;;;;;;5038968;28;20449;-82
2021/08/29 09:59:51;;;;;;;1.70;1.60;;;18.30;99.90;;;;;;5039390;28;20403;-84
2021/08/29 10:02:26;;;;;;;1.10;1.00;;;19.10;99.90;;;;;;5038774;28;20482;-85
2021/08/29 10:05:12;;;;;;;2.50;2.30;;;18.60;99.90;;;;;;5039329;28;20483;-83
2021/08/29 10:07:54;;;;;;;1.50;1.40;;;19.10;99.90;;;;;;5040374;28;20426;-84
2021/08/29 10:10:24;;;;;;;1.10;1.00;;;19.30;99.90;;;;;;5039665;28;20395;-84
2021/08/29 10:12:50;;;;;;;1.40;1.30;;;19.40;99.90;;;;;;5039949;28;20439;-84
2021/08/29 10:15:18;;;;;;;1.33;1.23;;;19.70;99.90;;;;;;5038377;28;20455;-84
2021/08/29 10:17:45;;;;;;;1.40;1.30;;;19.90;99.90;;;;;;5039005;28;20392;-84
2021/08/29 10:20:15;;;;;;;1.40;1.30;;;20.10;99.90;;;;;;5039494;28;20487;-84
2021/08/29 10:22:41;;;;;;;1.10;1.00;;;20.10;99.90;;;;;;5038912;28;20843;-83
2021/08/29 10:25:10;;;;;;;1.10;1.00;;;20.00;99.90;;;;;;5037884;28;20399;-84
2021/08/29 10:27:40;;;;;;;1.30;1.20;;;19.90;99.90;;;;;;5037986;28;20821;-84
2021/08/29 10:30:08;;;;;;;2.17;1.40;;;19.70;99.90;;;;;;5039390;28;20458;-83
2021/08/29 10:32:42;;;;;;;1.20;1.10;;;19.40;99.90;;;;;;5037848;28;20450;-83
2021/08/29 10:35:09;;;;;;;1.10;1.00;;;19.20;99.90;;;;;;5039455;28;20396;-84
2021/08/29 10:37:41;;;;;;;1.10;1.00;;;19.00;99.90;;;;;;5037871;28;20432;-84
2021/08/29 10:40:08;;;;;;;1.60;1.10;;;18.80;99.90;;;;;;5038561;28;20712;-84
2021/08/29 10:42:38;;;;;;;2.00;1.80;;;18.70;99.90;;;;;;5039417;28;20489;-84
2021/08/29 10:45:06;;;;;;;1.37;1.27;;;18.40;99.90;;;;;;5038876;28;20519;-84
2021/08/29 10:47:33;;;;;;;1.10;1.00;;;18.40;99.90;;;;;;5037406;28;20506;-83
2021/08/29 10:50:02;;;;;;;1.27;1.17;;;18.30;99.90;;;;;;5037975;28;20419;-83
2021/08/29 10:52:30;;;;;;;1.47;1.20;;;18.40;99.90;;;;;;5038565;28;20783;-84
2021/08/29 10:55:00;;;;;;;1.23;1.13;;;18.40;99.90;;;;;;5038012;28;20395;-84
2021/08/29 10:57:30;;;;;;;1.87;1.47;;;18.40;99.90;;;;;;5037409;28;20388;-84
2021/08/29 11:00:17;;;;;;;1.93;1.83;;;18.40;99.90;;;;;;5038697;28;20487;-83
2021/08/29 11:02:48;;;;;;;1.20;1.10;;;18.40;99.90;;;;;;5037387;28;20447;-82
2021/08/29 11:05:35;;;;;;;1.33;1.23;;;18.40;99.90;;;;;;5038004;28;20404;-84
2021/08/29 11:08:24;;;;;;;2.27;1.13;;;18.30;99.90;;;;;;5038171;28;20956;-83
2021/08/29 11:10:53;;;;;;;1.50;1.40;;;18.20;99.90;;;;;;5042280;28;20396;-83
2021/08/29 11:13:35;;;;;;;1.73;1.63;;;18.20;99.90;;;;;;5038133;28;20459;-82
2021/08/29 11:16:15;;;;;;;1.23;1.13;;;18.10;99.90;;;;;;5042736;28;20828;-83
2021/08/29 11:19:14;;;;;;;1.70;1.60;;;18.30;99.90;;;;;;5047553;28;20395;-84
2021/08/29 11:22:11;;;;;;;1.60;1.50;;;18.10;99.90;;;;;;5048205;28;20479;-81
2021/08/29 11:24:57;;;;;;;1.40;1.30;;;18.20;99.90;;;;;;5049439;28;20453;-83
2021/08/29 11:27:52;;;;;;;1.50;1.40;;;18.30;99.90;;;;;;5046907;28;20402;-84
2021/08/29 11:30:22;;;;;;;1.30;1.20;;;18.20;99.90;;;;;;5046521;28;20410;-82
2021/08/29 11:33:06;;;;;;;2.47;2.10;;;18.10;99.90;;;;;;5048044;28;20541;-84
2021/08/29 11:35:36;;;;;;;1.30;1.20;;;18.30;99.90;;;;;;5048126;28;20444;-84
2021/08/29 11:38:17;;;;;;;1.57;1.47;;;18.40;99.90;;;;;;5029797;28;20426;-84
2021/08/29 11:40:47;;;;;;;1.70;1.60;;;18.40;99.90;;;;;;5047978;28;20430;-84
2021/08/29 11:43:21;;;;;;;1.50;1.40;;;18.40;99.90;;;;;;5046607;28;20427;-84
2021/08/29 11:45:56;;;;;;;2.03;1.13;;;18.30;99.90;;;;;;5014010;28;20426;-84
2021/08/29 11:48:24;;;;;;;1.37;1.27;;;17.90;99.90;;;;;;5047455;28;20399;-84
2021/08/29 11:50:51;;;;;;;1.70;1.60;;;17.70;99.90;;;;;;5049956;28;20483;-84
2021/08/29 11:53:17;;;;;;;1.50;1.40;;;17.40;99.90;;;;;;5051541;28;20439;-84
2021/08/29 11:55:43;;;;;;;1.80;1.70;;;17.40;99.90;;;;;;5052243;28;20405;-84
2021/08/29 11:58:21;;;;;;;1.40;1.30;;;17.20;99.90;;;;;;5035099;28;20396;-84
2021/08/29 12:01:00;;;;;;;1.63;1.20;;;17.10;99.90;;;;;;5051509;28;20420;-83
2021/08/29 12:03:35;;;;;;;1.60;1.50;;;17.10;99.90;;;;;;5052592;28;20400;-82
2021/08/29 12:06:18;;;;;;;1.30;1.20;;;17.10;99.90;;;;;;5056277;28;20438;-83
2021/08/29 12:09:03;;;;;;;2.50;1.33;;;17.20;99.90;;;;;;5053904;28;20485;-83
2021/08/29 12:11:35;;;;;;;1.60;1.50;;;17.10;99.90;;;;;;5051698;28;20403;-83
2021/08/29 12:14:12;;;;;;;1.53;1.43;;;17.20;99.90;;;;;;5049946;28;20978;-83
2021/08/29 12:16:43;;;;;;;1.60;1.37;;;17.20;99.90;;;;;;5050049;28;20395;-84
2021/08/29 12:19:13;;;;;;;1.50;1.40;;;17.00;99.90;;;;;;5050982;28;20400;-84
2021/08/29 12:21:43;;;;;;;1.73;1.50;;;17.10;99.90;;;;;;5049977;28;20438;-84
2021/08/29 12:24:12;;;;;;;2.23;1.60;;;17.20;99.90;;;;;;5049043;28;20415;-84
2021/08/29 12:26:38;;;;;;;1.83;1.67;;;17.20;99.90;;;;;;5048814;28;20427;-84
2021/08/29 12:29:07;;;;;;;2.13;1.77;;;17.40;99.90;;;;;;5049681;28;20399;-84
2021/08/29 12:31:39;;;;;;;1.50;1.40;;;17.50;99.90;;;;;;5051356;28;20498;-84
2021/08/29 12:34:05;;;;;;;1.77;1.67;;;17.40;99.90;;;;;;5050814;28;20439;-84
2021/08/29 12:36:32;;;;;;;2.70;2.27;;;17.50;99.90;;;;;;5051110;28;20713;-84
2021/08/29 12:38:58;;;;;;;1.47;1.37;;;17.60;99.90;;;;;;5050938;28;20398;-83
2021/08/29 12:41:24;;;;;;;1.90;1.80;;;17.60;99.90;;;;;;5050200;28;20526;-84
2021/08/29 12:43:50;;;;;;;1.93;1.83;;;17.10;99.90;;;;;;5051245;28;20403;-84
2021/08/29 12:46:16;;;;;;;1.57;1.47;;;17.40;99.90;;;;;;5051194;28;20165;-84
2021/08/29 12:48:42;;;;;;;1.90;1.80;;;17.50;99.90;;;;;;5050140;28;20176;-84
2021/08/29 12:51:10;;;;;;;2.00;1.90;;;17.10;99.90;;;;;;5050898;28;20749;-84
2021/08/29 12:53:38;;;;;;;2.33;2.13;;;17.30;99.90;;;;;;5050418;28;20454;-84
2021/08/29 12:56:18;;;;;;;1.60;1.47;;;17.40;99.90;;;;;;5050683;28;20388;-83